sensor_id;sensor_type;location;lat;lon;timestamp;pressure;altitude;pressure_sealevel;temperature;humidity
76637;BME280;65532;52.124;5.480;2023-05-18T00:02:17;102876.22;;;5.13;89.37
76637;BME280;65532;52.124;5.480;2023-05-18T00:04:43;102872.41;;;5.05;89.23
76637;BME280;65532;52.124;5.480;2023-05-18T00:07:10;102866.63;;;5.00;89.45
76637;BME280;65532;52.124;5.480;2023-05-18T00:09:37;102871.28;;;4.98;89.06
76637;BME280;65532;52.124;5.480;2023-05-18T00:12:04;102867.22;;;4.94;89.48
76637;BME280;65532;52.124;5.480;2023-05-18T00:14:31;102868.06;;;4.95;89.63
76637;BME280;65532;52.124;5.480;2023-05-18T00:16:58;102867.22;;;4.94;89.34
76637;BME280;65532;52.124;5.480;2023-05-18T00:19:27;102867.22;;;4.94;90.09
76637;BME280;65532;52.124;5.480;2023-05-18T00:21:55;102863.81;;;4.92;90.21
76637;BME280;65532;52.124;5.480;2023-05-18T00:24:22;102867.75;;;4.88;90.47
76637;BME280;65532;52.124;5.480;2023-05-18T00:26:49;102865.38;;;4.85;90.85
76637;BME280;65532;52.124;5.480;2023-05-18T00:29:15;102873.72;;;4.82;90.57
76637;BME280;65532;52.124;5.480;2023-05-18T00:31:42;102881.06;;;4.80;90.25
76637;BME280;65532;52.124;5.480;2023-05-18T00:34:12;102884.75;;;4.79;90.81
76637;BME280;65532;52.124;5.480;2023-05-18T00:36:39;102882.34;;;4.76;91.09
76637;BME280;65532;52.124;5.480;2023-05-18T00:39:07;102878.22;;;4.72;90.37
76637;BME280;65532;52.124;5.480;2023-05-18T00:41:35;102876.53;;;4.71;90.84
76637;BME280;65532;52.124;5.480;2023-05-18T00:44:01;102875.13;;;4.67;90.64
76637;BME280;65532;52.124;5.480;2023-05-18T00:46:30;102872.88;;;4.62;91.17
76637;BME280;65532;52.124;5.480;2023-05-18T00:48:57;102875.88;;;4.59;90.91
76637;BME280;65532;52.124;5.480;2023-05-18T00:51:27;102881.78;;;4.53;91.10
76637;BME280;65532;52.124;5.480;2023-05-18T00:53:55;102878.53;;;4.49;90.84
76637;BME280;65532;52.124;5.480;2023-05-18T00:56:22;102883.03;;;4.49;90.87
76637;BME280;65532;52.124;5.480;2023-05-18T00:58:54;102873.47;;;4.46;91.20
76637;BME280;65532;52.124;5.480;2023-05-18T01:01:29;102879.34;;;4.40;91.02
76637;BME280;65532;52.124;5.480;2023-05-18T01:03:56;102877.97;;;4.36;91.05
76637;BME280;65532;52.124;5.480;2023-05-18T01:06:31;102882.47;;;4.36;91.51
76637;BME280;65532;52.124;5.480;2023-05-18T01:09:02;102886.00;;;4.36;91.26
76637;BME280;65532;52.124;5.480;2023-05-18T01:17:45;102880.91;;;4.24;91.83
76637;BME280;65532;52.124;5.480;2023-05-18T01:23:05;102882.03;;;4.11;92.00
76637;BME280;65532;52.124;5.480;2023-05-18T01:25:58;102882.03;;;4.11;91.91
76637;BME280;65532;52.124;5.480;2023-05-18T01:28:31;102887.81;;;4.16;92.00
76637;BME280;65532;52.124;5.480;2023-05-18T01:30:58;102881.59;;;4.16;92.37
76637;BME280;65532;52.124;5.480;2023-05-18T01:33:25;102886.41;;;4.12;92.00
76637;BME280;65532;52.124;5.480;2023-05-18T01:35:52;102887.78;;;4.07;92.55
76637;BME280;65532;52.124;5.480;2023-05-18T01:38:20;102894.84;;;3.98;92.37
76637;BME280;65532;52.124;5.480;2023-05-18T01:43:30;102890.72;;;3.94;92.78
76637;BME280;65532;52.124;5.480;2023-05-18T01:46:05;102886.09;;;3.96;92.92
76637;BME280;65532;52.124;5.480;2023-05-18T01:48:36;102884.41;;;3.95;93.02
76637;BME280;65532;52.124;5.480;2023-05-18T01:51:05;102890.00;;;3.92;92.46
76637;BME280;65532;52.124;5.480;2023-05-18T01:53:42;102890.41;;;3.87;92.69
76637;BME280;65532;52.124;5.480;2023-05-18T01:56:11;102887.03;;;3.85;92.37
76637;BME280;65532;52.124;5.480;2023-05-18T01:58:39;102887.75;;;3.87;92.63
76637;BME280;65532;52.124;5.480;2023-05-18T02:01:07;102891.13;;;3.89;92.99
76637;BME280;65532;52.124;5.480;2023-05-18T02:03:33;102884.06;;;3.88;92.58
76637;BME280;65532;52.124;5.480;2023-05-18T02:06:00;102886.75;;;3.88;92.65
76637;BME280;65532;52.124;5.480;2023-05-18T02:08:26;102886.75;;;3.88;93.02
76637;BME280;65532;52.124;5.480;2023-05-18T02:10:53;102889.72;;;3.85;92.44
76637;BME280;65532;52.124;5.480;2023-05-18T02:13:19;102885.47;;;3.83;92.70
76637;BME280;65532;52.124;5.480;2023-05-18T02:15:46;102885.75;;;3.80;92.70
76637;BME280;65532;52.124;5.480;2023-05-18T02:18:12;102886.00;;;3.77;92.84
76637;BME280;65532;52.124;5.480;2023-05-18T02:20:39;102890.50;;;3.76;92.95
76637;BME280;65532;52.124;5.480;2023-05-18T02:23:05;102889.09;;;3.72;92.92
76637;BME280;65532;52.124;5.480;2023-05-18T02:25:32;102885.44;;;3.73;93.07
76637;BME280;65532;52.124;5.480;2023-05-18T02:27:59;102892.63;;;3.73;92.40
76637;BME280;65532;52.124;5.480;2023-05-18T02:30:25;102889.09;;;3.72;92.66
76637;BME280;65532;52.124;5.480;2023-05-18T02:32:52;102889.38;;;3.69;93.30
76637;BME280;65532;52.124;5.480;2023-05-18T02:35:18;102884.03;;;3.69;92.37
76637;BME280;65532;52.124;5.480;2023-05-18T02:37:45;102880.63;;;3.67;93.12
76637;BME280;65532;52.124;5.480;2023-05-18T02:40:12;102880.06;;;3.64;92.93
76637;BME280;65532;52.124;5.480;2023-05-18T02:42:41;102880.16;;;3.62;92.93
76637;BME280;65532;52.124;5.480;2023-05-18T02:45:09;102884.81;;;3.60;93.08
76637;BME280;65532;52.124;5.480;2023-05-18T02:47:37;102874.09;;;3.60;92.83
76637;BME280;65532;52.124;5.480;2023-05-18T02:50:04;102883.81;;;3.61;92.45
76637;BME280;65532;52.124;5.480;2023-05-18T02:52:31;102875.66;;;3.63;92.53
76637;BME280;65532;52.124;5.480;2023-05-18T02:54:59;102876.53;;;3.63;92.92
76637;BME280;65532;52.124;5.480;2023-05-18T02:57:45;102870.44;;;3.61;93.09
76637;BME280;65532;52.124;5.480;2023-05-18T03:00:18;102870.44;;;3.61;93.21
76637;BME280;65532;52.124;5.480;2023-05-18T03:02:45;102878.03;;;3.56;92.76
76637;BME280;65532;52.124;5.480;2023-05-18T03:05:13;102878.03;;;3.56;93.39
76637;BME280;65532;52.124;5.480;2023-05-18T03:07:41;102877.06;;;3.57;92.94
76637;BME280;65532;52.124;5.480;2023-05-18T03:10:17;102879.72;;;3.57;93.49
76637;BME280;65532;52.124;5.480;2023-05-18T03:12:44;102880.72;;;3.56;92.91
76637;BME280;65532;52.124;5.480;2023-05-18T03:15:11;102881.69;;;3.55;92.67
76637;BME280;65532;52.124;5.480;2023-05-18T03:17:39;102883.41;;;3.56;92.83
76637;BME280;65532;52.124;5.480;2023-05-18T03:20:09;102881.13;;;3.51;92.78
76637;BME280;65532;52.124;5.480;2023-05-18T03:22:42;102880.56;;;3.48;93.06
76637;BME280;65532;52.124;5.480;2023-05-18T03:25:09;102887.75;;;3.47;93.00
76637;BME280;65532;52.124;5.480;2023-05-18T03:27:35;102885.06;;;3.47;92.41
76637;BME280;65532;52.124;5.480;2023-05-18T03:30:03;102882.78;;;3.43;92.75
76637;BME280;65532;52.124;5.480;2023-05-18T03:32:31;102885.44;;;3.43;92.52
76637;BME280;65532;52.124;5.480;2023-05-18T03:34:58;102888.41;;;3.40;92.68
76637;BME280;65532;52.124;5.480;2023-05-18T03:37:26;102881.63;;;3.36;93.12
76637;BME280;65532;52.124;5.480;2023-05-18T03:39:58;102884.56;;;3.33;92.68
76637;BME280;65532;52.124;5.480;2023-05-18T03:42:25;102882.13;;;3.29;92.63
76637;BME280;65532;52.124;5.480;2023-05-18T03:44:52;102884.09;;;3.27;93.15
76637;BME280;65532;52.124;5.480;2023-05-18T03:47:19;102881.69;;;3.24;93.21
76637;BME280;65532;52.124;5.480;2023-05-18T03:49:47;102891.41;;;3.25;93.46
76637;BME280;65532;52.124;5.480;2023-05-18T03:52:14;102885.22;;;3.25;93.48
76637;BME280;65532;52.124;5.480;2023-05-18T03:54:47;102886.06;;;3.25;93.32
76637;BME280;65532;52.124;5.480;2023-05-18T03:57:15;102885.78;;;3.28;92.11
76637;BME280;65532;52.124;5.480;2023-05-18T03:59:43;102892.00;;;3.29;93.28
76637;BME280;65532;52.124;5.480;2023-05-18T04:02:10;102889.44;;;3.27;93.13
76637;BME280;65532;52.124;5.480;2023-05-18T04:04:38;102891.41;;;3.25;92.63
76637;BME280;65532;52.124;5.480;2023-05-18T04:07:14;102890.31;;;3.28;92.55
76637;BME280;65532;52.124;5.480;2023-05-18T04:09:43;102887.47;;;3.29;93.21
76637;BME280;65532;52.124;5.480;2023-05-18T04:12:10;102896.13;;;3.33;92.61
76637;BME280;65532;52.124;5.480;2023-05-18T04:14:36;102888.09;;;3.33;92.58
76637;BME280;65532;52.124;5.480;2023-05-18T04:17:03;102902.06;;;3.37;93.12
76637;BME280;65532;52.124;5.480;2023-05-18T04:19:34;102898.38;;;3.38;93.05
76637;BME280;65532;52.124;5.480;2023-05-18T04:22:02;102902.31;;;3.34;92.94
76637;BME280;65532;52.124;5.480;2023-05-18T04:24:31;102905.97;;;3.33;92.62
76637;BME280;65532;52.124;5.480;2023-05-18T04:26:59;102906.69;;;3.35;92.37
76637;BME280;65532;52.124;5.480;2023-05-18T04:29:27;102902.75;;;3.39;92.78
76637;BME280;65532;52.124;5.480;2023-05-18T04:31:55;102909.69;;;3.41;92.21
76637;BME280;65532;52.124;5.480;2023-05-18T04:34:27;102905.88;;;3.44;92.55
76637;BME280;65532;52.124;5.480;2023-05-18T04:36:54;102910.13;;;3.46;92.41
76637;BME280;65532;52.124;5.480;2023-05-18T04:39:21;102906.66;;;3.55;92.59
76637;BME280;65532;52.124;5.480;2023-05-18T04:41:51;102909.38;;;3.65;92.88
76637;BME280;65532;52.124;5.480;2023-05-18T04:44:27;102910.97;;;3.77;92.43
76637;BME280;65532;52.124;5.480;2023-05-18T04:46:57;102918.47;;;3.83;92.96
76637;BME280;65532;52.124;5.480;2023-05-18T04:49:24;102925.25;;;3.87;92.64
76637;BME280;65532;52.124;5.480;2023-05-18T04:51:53;102919.63;;;3.90;92.09
76637;BME280;65532;52.124;5.480;2023-05-18T04:54:26;102921.63;;;3.98;92.32
76637;BME280;65532;52.124;5.480;2023-05-18T04:56:56;102924.72;;;4.03;92.44
76637;BME280;65532;52.124;5.480;2023-05-18T04:59:23;102929.94;;;4.05;92.40
76637;BME280;65532;52.124;5.480;2023-05-18T05:01:54;102931.81;;;4.14;92.92
76637;BME280;65532;52.124;5.480;2023-05-18T05:04:22;102931.59;;;4.27;92.31
76637;BME280;65532;52.124;5.480;2023-05-18T05:06:49;102926.22;;;4.36;92.41
76637;BME280;65532;52.124;5.480;2023-05-18T05:09:15;102929.91;;;4.55;92.19
76637;BME280;65532;52.124;5.480;2023-05-18T05:11:42;102927.09;;;4.66;92.27
76637;BME280;65532;52.124;5.480;2023-05-18T05:14:09;102928.38;;;4.91;92.06
76637;BME280;65532;52.124;5.480;2023-05-18T05:16:35;102924.78;;;5.19;92.30
76637;BME280;65532;52.124;5.480;2023-05-18T05:19:02;102931.91;;;5.57;92.49
76637;BME280;65532;52.124;5.480;2023-05-18T05:21:29;102930.41;;;6.37;92.70
76637;BME280;65532;52.124;5.480;2023-05-18T05:23:57;102931.31;;;7.69;91.74
76637;BME280;65532;52.124;5.480;2023-05-18T05:26:25;102921.91;;;8.74;87.79
76637;BME280;65532;52.124;5.480;2023-05-18T05:28:51;102916.59;;;9.45;85.44
76637;BME280;65532;52.124;5.480;2023-05-18T05:31:18;102921.41;;;10.53;81.56
76637;BME280;65532;52.124;5.480;2023-05-18T05:33:44;102909.91;;;11.63;75.95
76637;BME280;65532;52.124;5.480;2023-05-18T05:36:12;102920.72;;;12.22;71.80
76637;BME280;65532;52.124;5.480;2023-05-18T05:38:38;102923.56;;;12.72;68.91
76637;BME280;65532;52.124;5.480;2023-05-18T05:41:05;102917.88;;;12.67;67.09
76637;BME280;65532;52.124;5.480;2023-05-18T05:43:32;102908.81;;;12.81;65.97
76637;BME280;65532;52.124;5.480;2023-05-18T05:45:59;102913.13;;;12.75;62.88
76637;BME280;65532;52.124;5.480;2023-05-18T05:48:26;102919.53;;;12.10;61.69
76637;BME280;65532;52.124;5.480;2023-05-18T05:50:53;102917.47;;;11.38;61.45
76637;BME280;65532;52.124;5.480;2023-05-18T05:53:19;102915.69;;;11.46;62.53
76637;BME280;65532;52.124;5.480;2023-05-18T05:55:48;102916.00;;;11.80;62.61
76637;BME280;65532;52.124;5.480;2023-05-18T05:58:16;102915.97;;;12.46;61.92
76637;BME280;65532;52.124;5.480;2023-05-18T06:00:53;102912.22;;;13.11;60.53
76637;BME280;65532;52.124;5.480;2023-05-18T06:03:20;102912.00;;;13.68;58.68
76637;BME280;65532;52.124;5.480;2023-05-18T06:05:47;102915.72;;;13.95;55.47
76637;BME280;65532;52.124;5.480;2023-05-18T06:08:16;102916.94;;;13.52;55.23
76637;BME280;65532;52.124;5.480;2023-05-18T06:10:44;102915.34;;;13.36;54.14
76637;BME280;65532;52.124;5.480;2023-05-18T06:13:11;102918.09;;;14.05;55.10
76637;BME280;65532;52.124;5.480;2023-05-18T06:15:47;102913.63;;;13.97;53.67
76637;BME280;65532;52.124;5.480;2023-05-18T06:18:13;102921.72;;;13.77;54.11
76637;BME280;65532;52.124;5.480;2023-05-18T06:20:40;102922.56;;;13.22;53.71
76637;BME280;65532;52.124;5.480;2023-05-18T06:23:07;102925.63;;;12.48;56.08
76637;BME280;65532;52.124;5.480;2023-05-18T06:26:02;102934.88;;;12.18;58.58
76637;BME280;65532;52.124;5.480;2023-05-18T06:28:49;102939.19;;;12.63;57.38
76637;BME280;65532;52.124;5.480;2023-05-18T06:31:32;102939.50;;;13.73;55.91
76637;BME280;65532;52.124;5.480;2023-05-18T06:34:12;102939.03;;;14.52;53.11
76637;BME280;65532;52.124;5.480;2023-05-18T06:36:39;102938.03;;;14.86;51.60
76637;BME280;65532;52.124;5.480;2023-05-18T06:39:05;102939.06;;;14.79;51.97
76637;BME280;65532;52.124;5.480;2023-05-18T06:41:32;102932.56;;;15.46;50.68
76637;BME280;65532;52.124;5.480;2023-05-18T06:43:59;102927.09;;;15.59;49.11
76637;BME280;65532;52.124;5.480;2023-05-18T06:46:37;102932.97;;;15.56;48.46
76637;BME280;65532;52.124;5.480;2023-05-18T06:49:10;102940.91;;;14.65;49.22
76637;BME280;65532;52.124;5.480;2023-05-18T06:51:38;102934.06;;;14.89;50.52
76637;BME280;65532;52.124;5.480;2023-05-18T06:54:04;102924.38;;;15.59;48.96
76637;BME280;65532;52.124;5.480;2023-05-18T06:56:32;102941.16;;;15.69;47.68
76637;BME280;65532;52.124;5.480;2023-05-18T06:58:58;102939.25;;;15.56;46.75
76637;BME280;65532;52.124;5.480;2023-05-18T07:01:26;102946.00;;;15.14;46.52
76637;BME280;65532;52.124;5.480;2023-05-18T07:03:57;102951.91;;;15.05;46.86
76637;BME280;65532;52.124;5.480;2023-05-18T07:06:24;102936.78;;;15.22;46.69
76637;BME280;65532;52.124;5.480;2023-05-18T07:08:50;102950.63;;;14.87;46.97
76637;BME280;65532;52.124;5.480;2023-05-18T07:11:17;102950.59;;;14.20;46.82
76637;BME280;65532;52.124;5.480;2023-05-18T07:13:43;102962.59;;;14.32;48.19
76637;BME280;65532;52.124;5.480;2023-05-18T07:16:10;102955.16;;;14.06;48.69
76637;BME280;65532;52.124;5.480;2023-05-18T07:18:37;102960.03;;;14.17;48.36
76637;BME280;65532;52.124;5.480;2023-05-18T07:21:04;102952.72;;;13.83;48.34
76637;BME280;65532;52.124;5.480;2023-05-18T07:23:30;102950.84;;;13.49;49.70
76637;BME280;65532;52.124;5.480;2023-05-18T07:25:57;102954.09;;;13.38;50.05
76637;BME280;65532;52.124;5.480;2023-05-18T07:28:24;102956.53;;;13.26;51.03
76637;BME280;65532;52.124;5.480;2023-05-18T07:30:51;102955.34;;;13.14;50.86
76637;BME280;65532;52.124;5.480;2023-05-18T07:33:17;102957.28;;;13.20;50.71
76637;BME280;65532;52.124;5.480;2023-05-18T07:35:44;102956.66;;;13.18;50.71
76637;BME280;65532;52.124;5.480;2023-05-18T07:38:10;102961.91;;;13.19;51.69
76637;BME280;65532;52.124;5.480;2023-05-18T07:40:37;102969.31;;;12.89;51.80
76637;BME280;65532;52.124;5.480;2023-05-18T07:43:03;102974.13;;;12.87;51.51
76637;BME280;65532;52.124;5.480;2023-05-18T07:45:30;102967.66;;;12.67;52.08
76637;BME280;65532;52.124;5.480;2023-05-18T07:47:57;102963.63;;;12.84;51.76
76637;BME280;65532;52.124;5.480;2023-05-18T07:50:23;102967.66;;;12.88;51.26
76637;BME280;65532;52.124;5.480;2023-05-18T07:52:50;102967.25;;;12.70;51.62
76637;BME280;65532;52.124;5.480;2023-05-18T07:55:17;102971.41;;;12.15;53.26
76637;BME280;65532;52.124;5.480;2023-05-18T07:57:43;102968.78;;;12.07;53.07
76637;BME280;65532;52.124;5.480;2023-05-18T08:00:10;102973.75;;;11.89;53.75
76637;BME280;65532;52.124;5.480;2023-05-18T08:02:41;102974.28;;;12.28;53.01
76637;BME280;65532;52.124;5.480;2023-05-18T08:05:08;102983.03;;;11.94;53.04
76637;BME280;65532;52.124;5.480;2023-05-18T08:07:36;102979.47;;;12.09;53.19
76637;BME280;65532;52.124;5.480;2023-05-18T08:10:03;102977.00;;;12.14;53.23
76637;BME280;65532;52.124;5.480;2023-05-18T08:12:30;102978.63;;;12.08;54.11
76637;BME280;65532;52.124;5.480;2023-05-18T08:14:56;102976.13;;;12.43;53.39
76637;BME280;65532;52.124;5.480;2023-05-18T08:17:23;102971.09;;;12.40;53.09
76637;BME280;65532;52.124;5.480;2023-05-18T08:19:49;102971.59;;;12.14;53.65
76637;BME280;65532;52.124;5.480;2023-05-18T08:22:19;102980.88;;;12.19;54.44
76637;BME280;65532;52.124;5.480;2023-05-18T08:24:46;102977.50;;;12.17;54.59
76637;BME280;65532;52.124;5.480;2023-05-18T08:27:13;102974.59;;;12.04;53.45
76637;BME280;65532;52.124;5.480;2023-05-18T08:29:39;102982.09;;;12.17;53.58
76637;BME280;65532;52.124;5.480;2023-05-18T08:32:06;102980.50;;;11.93;54.27
76637;BME280;65532;52.124;5.480;2023-05-18T08:34:33;102978.03;;;11.83;54.00
76637;BME280;65532;52.124;5.480;2023-05-18T08:37:00;102979.38;;;12.02;53.68
76637;BME280;65532;52.124;5.480;2023-05-18T08:39:26;102965.72;;;12.46;52.91
76637;BME280;65532;52.124;5.480;2023-05-18T08:42:01;102971.41;;;12.66;53.10
76637;BME280;65532;52.124;5.480;2023-05-18T08:44:33;102974.22;;;12.58;53.36
76637;BME280;65532;52.124;5.480;2023-05-18T08:47:08;102966.25;;;12.56;53.42
76637;BME280;65532;52.124;5.480;2023-05-18T08:49:35;102975.41;;;12.70;53.33
76637;BME280;65532;52.124;5.480;2023-05-18T08:52:03;102971.88;;;12.55;53.37
76637;BME280;65532;52.124;5.480;2023-05-18T08:54:30;102973.06;;;12.67;53.12
76637;BME280;65532;52.124;5.480;2023-05-18T08:56:58;102961.75;;;12.64;52.93
76637;BME280;65532;52.124;5.480;2023-05-18T08:59:30;102959.22;;;13.05;51.81
76637;BME280;65532;52.124;5.480;2023-05-18T09:01:57;102955.19;;;13.43;50.90
76637;BME280;65532;52.124;5.480;2023-05-18T09:04:24;102947.84;;;13.72;50.90
76637;BME280;65532;52.124;5.480;2023-05-18T09:06:53;102950.72;;;13.98;50.32
76637;BME280;65532;52.124;5.480;2023-05-18T09:09:21;102949.97;;;14.18;49.33
76637;BME280;65532;52.124;5.480;2023-05-18T09:11:49;102944.66;;;14.03;49.10
76637;BME280;65532;52.124;5.480;2023-05-18T09:14:17;102936.50;;;13.68;48.90
76637;BME280;65532;52.124;5.480;2023-05-18T09:16:44;102943.91;;;13.81;49.87
76637;BME280;65532;52.124;5.480;2023-05-18T09:19:10;102937.97;;;13.71;49.10
76637;BME280;65532;52.124;5.480;2023-05-18T09:21:37;102937.94;;;13.99;48.57
76637;BME280;65532;52.124;5.480;2023-05-18T09:24:04;102935.25;;;14.05;48.69
76637;BME280;65532;52.124;5.480;2023-05-18T09:26:31;102942.25;;;13.87;50.09
76637;BME280;65532;52.124;5.480;2023-05-18T09:28:58;102937.47;;;13.89;49.80
76637;BME280;65532;52.124;5.480;2023-05-18T09:31:25;102931.84;;;13.90;49.85
76637;BME280;65532;52.124;5.480;2023-05-18T09:33:52;102932.91;;;13.61;49.08
76637;BME280;65532;52.124;5.480;2023-05-18T09:36:24;102928.53;;;13.32;48.53
76637;BME280;65532;52.124;5.480;2023-05-18T09:38:51;102930.44;;;13.38;50.39
76637;BME280;65532;52.124;5.480;2023-05-18T09:41:18;102919.28;;;13.96;49.66
76637;BME280;65532;52.124;5.480;2023-05-18T09:43:48;102923.22;;;14.41;48.43
76637;BME280;65532;52.124;5.480;2023-05-18T09:46:16;102923.56;;;14.92;48.50
76637;BME280;65532;52.124;5.480;2023-05-18T09:48:50;102922.72;;;15.05;48.58
76637;BME280;65532;52.124;5.480;2023-05-18T09:51:17;102917.66;;;15.42;47.34
76637;BME280;65532;52.124;5.480;2023-05-18T09:53:48;102923.13;;;15.35;47.81
76637;BME280;65532;52.124;5.480;2023-05-18T09:56:16;102907.38;;;15.50;46.85
76637;BME280;65532;52.124;5.480;2023-05-18T09:58:44;102917.69;;;15.35;46.04
76637;BME280;65532;52.124;5.480;2023-05-18T10:01:10;102920.81;;;14.92;46.52
76637;BME280;65532;52.124;5.480;2023-05-18T10:03:37;102917.22;;;14.59;48.02
76637;BME280;65532;52.124;5.480;2023-05-18T10:06:09;102913.25;;;15.14;47.71
76637;BME280;65532;52.124;5.480;2023-05-18T10:08:39;102916.44;;;15.18;46.36
76637;BME280;65532;52.124;5.480;2023-05-18T10:11:06;102911.59;;;15.13;47.10
76637;BME280;65532;52.124;5.480;2023-05-18T10:13:33;102903.81;;;15.30;46.70
76637;BME280;65532;52.124;5.480;2023-05-18T10:16:02;102901.91;;;15.37;46.23
76637;BME280;65532;52.124;5.480;2023-05-18T10:18:33;102892.59;;;15.84;44.80
76637;BME280;65532;52.124;5.480;2023-05-18T10:21:02;102892.41;;;15.73;45.66
76637;BME280;65532;52.124;5.480;2023-05-18T10:23:31;102897.28;;;15.64;44.94
76637;BME280;65532;52.124;5.480;2023-05-18T10:25:58;102895.63;;;15.63;46.07
76637;BME280;65532;52.124;5.480;2023-05-18T10:28:31;102899.22;;;15.04;45.47
76637;BME280;65532;52.124;5.480;2023-05-18T10:30:59;102899.00;;;14.86;46.82
76637;BME280;65532;52.124;5.480;2023-05-18T10:33:27;102885.16;;;15.20;45.26
76637;BME280;65532;52.124;5.480;2023-05-18T10:35:56;102896.28;;;15.06;46.02
76637;BME280;65532;52.124;5.480;2023-05-18T10:38:25;102885.53;;;15.44;46.53
76637;BME280;65532;52.124;5.480;2023-05-18T10:40:54;102890.47;;;15.86;44.91
76637;BME280;65532;52.124;5.480;2023-05-18T10:43:23;102884.56;;;15.90;45.00
76637;BME280;65532;52.124;5.480;2023-05-18T10:45:55;102888.63;;;15.74;45.67
76637;BME280;65532;52.124;5.480;2023-05-18T10:48:23;102886.19;;;16.04;44.58
76637;BME280;65532;52.124;5.480;2023-05-18T10:50:53;102885.69;;;16.20;44.75
76637;BME280;65532;52.124;5.480;2023-05-18T10:53:21;102876.09;;;16.11;45.60
76637;BME280;65532;52.124;5.480;2023-05-18T10:55:49;102879.91;;;16.03;45.39
76637;BME280;65532;52.124;5.480;2023-05-18T10:58:17;102879.59;;;15.73;45.53
76637;BME280;65532;52.124;5.480;2023-05-18T11:00:49;102868.53;;;16.06;44.40
76637;BME280;65532;52.124;5.480;2023-05-18T11:03:18;102881.31;;;16.51;44.18
76637;BME280;65532;52.124;5.480;2023-05-18T11:05:49;102871.03;;;16.14;46.88
76637;BME280;65532;52.124;5.480;2023-05-18T11:08:24;102879.78;;;16.23;45.24
76637;BME280;65532;52.124;5.480;2023-05-18T11:11:02;102877.34;;;16.46;43.25
76637;BME280;65532;52.124;5.480;2023-05-18T11:13:33;102880.00;;;16.60;43.53
76637;BME280;65532;52.124;5.480;2023-05-18T11:16:00;102873.16;;;16.44;43.00
76637;BME280;65532;52.124;5.480;2023-05-18T11:18:34;102873.03;;;16.64;43.67
76637;BME280;65532;52.124;5.480;2023-05-18T11:21:01;102875.72;;;16.70;42.40
76637;BME280;65532;52.124;5.480;2023-05-18T11:23:31;102861.28;;;16.88;41.73
76637;BME280;65532;52.124;5.480;2023-05-18T11:25:58;102865.06;;;16.87;42.19
76637;BME280;65532;52.124;5.480;2023-05-18T11:28:28;102864.84;;;17.14;42.19
76637;BME280;65532;52.124;5.480;2023-05-18T11:30:54;102854.38;;;17.29;41.00
76637;BME280;65532;52.124;5.480;2023-05-18T11:33:23;102844.38;;;16.73;41.23
76637;BME280;65532;52.124;5.480;2023-05-18T11:36:04;102854.50;;;16.34;42.37
76637;BME280;65532;52.124;5.480;2023-05-18T11:38:53;102855.63;;;16.58;42.98
76637;BME280;65532;52.124;5.480;2023-05-18T11:46:32;102845.59;;;16.45;42.28
76637;BME280;65532;52.124;5.480;2023-05-18T11:49:19;102845.16;;;15.72;41.84
76637;BME280;65532;52.124;5.480;2023-05-18T11:52:02;102841.78;;;15.70;42.97
76637;BME280;65532;52.124;5.480;2023-05-18T11:54:34;102848.31;;;16.14;42.26
76637;BME280;65532;52.124;5.480;2023-05-18T11:57:03;102835.44;;;16.53;42.14
76637;BME280;65532;52.124;5.480;2023-05-18T11:59:31;102826.84;;;17.24;41.72
76637;BME280;65532;52.124;5.480;2023-05-18T12:02:00;102829.41;;;17.92;41.21
76637;BME280;65532;52.124;5.480;2023-05-18T12:04:27;102827.56;;;17.74;40.38
76637;BME280;65532;52.124;5.480;2023-05-18T12:06:55;102828.53;;;17.43;39.93
76637;BME280;65532;52.124;5.480;2023-05-18T12:09:22;102817.69;;;17.66;39.79
76637;BME280;65532;52.124;5.480;2023-05-18T12:11:49;102812.59;;;17.15;39.73
76637;BME280;65532;52.124;5.480;2023-05-18T12:14:20;102812.50;;;16.29;40.91
76637;BME280;65532;52.124;5.480;2023-05-18T12:16:47;102807.78;;;16.67;40.85
76637;BME280;65532;52.124;5.480;2023-05-18T12:19:16;102803.13;;;17.36;40.79
76637;BME280;65532;52.124;5.480;2023-05-18T12:21:45;102811.00;;;17.62;40.29
76637;BME280;65532;52.124;5.480;2023-05-18T12:24:12;102809.56;;;17.60;40.07
76637;BME280;65532;52.124;5.480;2023-05-18T12:26:39;102803.72;;;17.56;39.47
76637;BME280;65532;52.124;5.480;2023-05-18T12:29:06;102808.81;;;17.89;39.55
76637;BME280;65532;52.124;5.480;2023-05-18T12:31:33;102800.34;;;17.91;39.78
76637;BME280;65532;52.124;5.480;2023-05-18T12:34:00;102807.53;;;18.34;39.92
76637;BME280;65532;52.124;5.480;2023-05-18T12:36:27;102794.91;;;18.03;38.43
76637;BME280;65532;52.124;5.480;2023-05-18T12:38:54;102800.06;;;18.11;37.92
76637;BME280;65532;52.124;5.480;2023-05-18T12:41:24;102798.19;;;17.93;38.92
76637;BME280;65532;52.124;5.480;2023-05-18T12:43:54;102803.56;;;18.30;38.63
76637;BME280;65532;52.124;5.480;2023-05-18T12:46:21;102799.63;;;17.84;39.34
76637;BME280;65532;52.124;5.480;2023-05-18T12:48:56;102792.59;;;18.30;37.96
76637;BME280;65532;52.124;5.480;2023-05-18T12:51:23;102789.38;;;18.98;37.72
76637;BME280;65532;52.124;5.480;2023-05-18T12:53:56;102789.56;;;19.31;37.05
76637;BME280;65532;52.124;5.480;2023-05-18T12:56:22;102794.25;;;18.84;37.60
76637;BME280;65532;52.124;5.480;2023-05-18T12:59:00;102789.84;;;18.95;38.39
76637;BME280;65532;52.124;5.480;2023-05-18T13:01:40;102787.69;;;18.73;38.35
76637;BME280;65532;52.124;5.480;2023-05-18T13:04:09;102778.00;;;19.06;37.72
76637;BME280;65532;52.124;5.480;2023-05-18T13:06:37;102772.50;;;19.29;37.11
76637;BME280;65532;52.124;5.480;2023-05-18T13:09:10;102767.53;;;18.79;37.97
76637;BME280;65532;52.124;5.480;2023-05-18T13:11:37;102785.03;;;18.02;39.17
76637;BME280;65532;52.124;5.480;2023-05-18T13:14:06;102773.22;;;18.54;39.18
76637;BME280;65532;52.124;5.480;2023-05-18T13:16:37;102779.22;;;18.87;38.33
76637;BME280;65532;52.124;5.480;2023-05-18T13:19:07;102775.97;;;19.13;37.15
76637;BME280;65532;52.124;5.480;2023-05-18T13:21:34;102771.22;;;18.97;37.13